createdAt,value
2022-11-26T00:00:02.375Z,35.00
2022-11-26T00:00:33.325Z,27.20
2022-11-26T00:01:04.400Z,28.40
2022-11-26T00:01:35.305Z,27.10
2022-11-26T00:02:06.364Z,27.70
2022-11-26T00:02:37.349Z,37.90
2022-11-26T00:03:08.489Z,29.80
2022-11-26T00:03:39.650Z,29.10
2022-11-26T00:04:10.888Z,31.50
2022-11-26T00:04:42.270Z,28.80
2022-11-26T00:05:13.498Z,30.60
2022-11-26T00:05:44.385Z,30.70
2022-11-26T00:06:15.458Z,32.70
2022-11-26T00:06:46.464Z,32.70
2022-11-26T00:07:17.587Z,32.00
2022-11-26T00:07:48.712Z,33.30
2022-11-26T00:08:19.518Z,35.60
2022-11-26T00:08:50.263Z,34.30
2022-11-26T00:09:21.059Z,31.60
2022-11-26T00:09:51.809Z,32.50
2022-11-26T00:10:22.570Z,32.60
2022-11-26T00:10:53.343Z,33.20
2022-11-26T00:11:24.101Z,31.20
2022-11-26T00:11:54.903Z,32.00
2022-11-26T00:12:25.675Z,31.30
2022-11-26T00:12:56.430Z,32.60
2022-11-26T00:13:27.204Z,35.90
2022-11-26T00:13:57.972Z,30.90
2022-11-26T00:14:28.750Z,34.00
2022-11-26T00:14:59.518Z,33.20
2022-11-26T00:15:30.287Z,28.60
2022-11-26T00:16:01.037Z,32.50
2022-11-26T00:16:31.857Z,34.50
2022-11-26T00:17:02.620Z,35.30
2022-11-26T00:17:33.381Z,30.00
2022-11-26T00:18:04.142Z,31.20
2022-11-26T00:18:35.042Z,28.60
2022-11-26T00:19:05.793Z,31.70
2022-11-26T00:19:36.566Z,28.30
2022-11-26T00:20:07.329Z,30.40
2022-11-26T00:20:38.092Z,35.00
2022-11-26T00:21:08.870Z,35.30
2022-11-26T00:21:39.632Z,31.90
2022-11-26T00:22:10.392Z,32.80
2022-11-26T00:22:41.171Z,30.70
2022-11-26T00:23:11.924Z,25.80
2022-11-26T00:23:42.683Z,30.40
2022-11-26T00:24:13.455Z,40.20
2022-11-26T00:24:44.233Z,27.70
2022-11-26T00:25:15.014Z,23.50
2022-11-26T00:25:45.774Z,27.00
2022-11-26T00:26:16.525Z,33.50
2022-11-26T00:26:47.294Z,26.50
2022-11-26T00:27:18.065Z,30.30
2022-11-26T00:27:48.853Z,30.80
2022-11-26T00:28:19.623Z,31.80
2022-11-26T00:28:50.393Z,33.00
2022-11-26T00:29:21.143Z,33.40
2022-11-26T00:29:51.925Z,35.00
2022-11-26T00:30:22.695Z,31.50
2022-11-26T00:30:53.465Z,35.30
2022-11-26T00:31:24.343Z,38.60
2022-11-26T00:31:55.201Z,34.40
2022-11-26T00:32:25.984Z,26.70
2022-11-26T00:32:56.753Z,29.10
2022-11-26T00:33:27.506Z,32.50
2022-11-26T00:33:58.265Z,28.50
2022-11-26T00:34:29.035Z,29.90
2022-11-26T00:34:59.806Z,34.90
2022-11-26T00:35:30.555Z,30.50
2022-11-26T00:36:01.315Z,32.30
2022-11-26T00:36:32.076Z,35.60
2022-11-26T00:37:02.837Z,28.40
2022-11-26T00:37:33.618Z,34.70
2022-11-26T00:38:04.395Z,34.30
2022-11-26T00:38:35.156Z,28.70
2022-11-26T00:39:05.939Z,29.40
2022-11-26T00:39:36.698Z,29.80
2022-11-26T00:40:07.481Z,33.20
2022-11-26T00:40:38.239Z,33.10
2022-11-26T00:41:09.013Z,33.70
2022-11-26T00:41:39.759Z,33.80
2022-11-26T00:42:10.517Z,31.10
2022-11-26T00:42:41.279Z,32.90
2022-11-26T00:43:12.071Z,33.40
2022-11-26T00:43:42.828Z,33.80
2022-11-26T00:44:13.586Z,33.50
2022-11-26T00:44:44.354Z,29.40
2022-11-26T00:45:15.139Z,33.90
2022-11-26T00:45:45.954Z,33.00
2022-11-26T00:46:16.816Z,35.00
2022-11-26T00:46:47.591Z,32.90
2022-11-26T00:47:18.355Z,31.00
2022-11-26T00:47:49.116Z,31.00
2022-11-26T00:48:19.867Z,34.50
2022-11-26T00:48:50.636Z,39.20
2022-11-26T00:49:21.398Z,45.50
2022-11-26T00:49:52.167Z,39.10
2022-11-26T00:50:22.998Z,35.10
2022-11-26T00:50:53.757Z,30.80
2022-11-26T00:51:24.527Z,44.50
2022-11-26T00:51:55.308Z,40.90
2022-11-26T00:52:26.083Z,36.20
2022-11-26T00:52:56.860Z,37.30
2022-11-26T00:53:27.626Z,44.80
2022-11-26T00:53:58.369Z,41.00
2022-11-26T00:54:29.139Z,33.10
2022-11-26T00:54:59.899Z,31.80
2022-11-26T00:55:30.680Z,34.10
2022-11-26T00:56:01.443Z,36.60
2022-11-26T00:56:37.633Z,33.40
2022-11-26T00:57:04.808Z,34.50
2022-11-26T00:57:35.568Z,36.10
2022-11-26T00:58:06.332Z,35.10
2022-11-26T00:58:37.098Z,39.00
2022-11-26T00:59:07.888Z,40.30
2022-11-26T00:59:38.639Z,40.30
2022-11-26T01:00:09.406Z,40.50
2022-11-26T01:00:40.224Z,40.20
2022-11-26T01:01:11.064Z,36.10
2022-11-26T01:01:41.902Z,36.40
2022-11-26T01:02:12.738Z,32.80
2022-11-26T01:02:43.540Z,36.90
2022-11-26T01:03:14.310Z,37.60
2022-11-26T01:03:45.081Z,35.20
2022-11-26T01:04:15.851Z,34.90
2022-11-26T01:04:46.609Z,34.90
2022-11-26T01:05:17.410Z,45.20
2022-11-26T01:05:48.158Z,43.20
2022-11-26T01:06:18.929Z,35.30
2022-11-26T01:06:49.691Z,39.60
2022-11-26T01:07:20.553Z,38.60
2022-11-26T01:07:51.440Z,42.90
2022-11-26T01:08:22.232Z,32.60
2022-11-26T01:08:53.007Z,30.30
2022-11-26T01:09:23.784Z,36.10
2022-11-26T01:09:54.558Z,28.70
2022-11-26T01:10:25.332Z,29.70
2022-11-26T01:10:56.225Z,32.30
2022-11-26T01:11:27.099Z,38.50
2022-11-26T01:11:57.863Z,33.80
2022-11-26T01:12:28.636Z,28.20
2022-11-26T01:12:59.403Z,34.20
2022-11-26T01:13:30.162Z,29.70
2022-11-26T01:14:00.928Z,35.70
2022-11-26T01:14:31.691Z,36.50
2022-11-26T01:15:02.463Z,37.30
2022-11-26T01:15:33.242Z,35.20
2022-11-26T01:16:04.054Z,35.70
2022-11-26T01:16:34.985Z,32.40
2022-11-26T01:17:05.803Z,26.90
2022-11-26T01:17:36.583Z,31.80
2022-11-26T01:18:07.333Z,32.90
2022-11-26T01:18:38.108Z,27.70
2022-11-26T01:19:08.865Z,27.50
2022-11-26T01:19:39.624Z,28.20
2022-11-26T01:20:10.390Z,28.00
2022-11-26T01:20:41.171Z,30.90
2022-11-26T01:21:11.924Z,29.20
2022-11-26T01:21:42.684Z,28.70
2022-11-26T01:22:13.461Z,30.70
2022-11-26T01:22:44.222Z,31.40
2022-11-26T01:23:14.996Z,30.40
2022-11-26T01:23:45.755Z,27.30
2022-11-26T01:24:16.544Z,29.70
2022-11-26T01:24:47.292Z,28.90
2022-11-26T01:25:18.072Z,30.10
2022-11-26T01:25:48.842Z,30.20
2022-11-26T01:26:19.592Z,28.10
2022-11-26T01:26:50.343Z,29.50
2022-11-26T01:27:21.100Z,27.30
2022-11-26T01:27:51.844Z,29.60
2022-11-26T01:28:22.613Z,32.90
2022-11-26T01:28:53.373Z,26.00
2022-11-26T01:29:24.131Z,28.80
2022-11-26T01:29:54.882Z,26.60
2022-11-26T01:30:25.633Z,25.60
2022-11-26T01:30:56.413Z,26.10
2022-11-26T01:31:27.188Z,26.00
2022-11-26T01:31:58.018Z,27.10
2022-11-26T01:32:29.677Z,25.60
2022-11-26T01:33:00.522Z,27.40
2022-11-26T01:33:31.281Z,24.60
2022-11-26T01:34:02.041Z,26.30
2022-11-26T01:34:32.794Z,28.60
2022-11-26T01:35:03.547Z,27.80
2022-11-26T01:35:34.303Z,28.40
2022-11-26T01:36:05.072Z,28.60
2022-11-26T01:36:35.816Z,24.30
2022-11-26T01:37:06.563Z,27.20
2022-11-26T01:37:37.324Z,33.50
2022-11-26T01:38:08.075Z,39.50
2022-11-26T01:38:38.844Z,30.90
2022-11-26T01:39:09.605Z,40.80
2022-11-26T01:39:40.372Z,26.10
2022-11-26T01:40:11.125Z,22.60
2022-11-26T01:40:41.926Z,25.30
2022-11-26T01:41:12.684Z,28.00
2022-11-26T01:41:43.444Z,24.10
2022-11-26T01:42:14.204Z,24.90
2022-11-26T01:42:44.997Z,24.10
2022-11-26T01:43:15.750Z,27.60
2022-11-26T01:43:46.550Z,28.20
2022-11-26T01:44:17.296Z,26.30
2022-11-26T01:44:48.049Z,26.00
2022-11-26T01:45:18.804Z,29.50
2022-11-26T01:45:49.633Z,31.60
2022-11-26T01:46:20.490Z,29.10
2022-11-26T01:46:51.275Z,24.30
2022-11-26T01:47:22.023Z,27.50
2022-11-26T01:47:52.767Z,35.20
2022-11-26T01:48:23.517Z,29.10
2022-11-26T01:48:54.364Z,31.60
2022-11-26T01:49:25.115Z,32.50
2022-11-26T01:49:55.867Z,28.60
2022-11-26T01:50:26.617Z,31.90
2022-11-26T01:50:57.387Z,22.30
2022-11-26T01:51:28.144Z,27.00
2022-11-26T01:51:58.896Z,38.80
2022-11-26T01:52:29.669Z,32.50
2022-11-26T01:53:00.426Z,21.50
2022-11-26T01:53:31.177Z,22.60
2022-11-26T01:54:01.937Z,25.90
2022-11-26T01:54:32.688Z,29.00
2022-11-26T01:55:03.461Z,25.80
2022-11-26T01:55:34.227Z,28.60
2022-11-26T01:56:04.987Z,22.90
2022-11-26T01:56:35.748Z,26.10
2022-11-26T01:57:06.498Z,31.90
2022-11-26T01:57:37.268Z,32.30
2022-11-26T01:58:08.027Z,30.10
2022-11-26T01:58:40.195Z,30.10
2022-11-26T01:59:11.109Z,32.80
2022-11-26T01:59:41.866Z,37.30
2022-11-26T02:00:12.619Z,23.20
2022-11-26T02:00:43.448Z,29.10
2022-11-26T02:01:14.344Z,33.60
2022-11-26T02:01:45.211Z,24.30
2022-11-26T02:02:16.154Z,27.70
2022-11-26T02:02:47.021Z,27.10
2022-11-26T02:03:17.825Z,25.60
2022-11-26T02:03:48.599Z,35.80
2022-11-26T02:04:19.359Z,31.90
2022-11-26T02:04:50.121Z,28.20
2022-11-26T02:05:20.880Z,28.80
2022-11-26T02:05:51.642Z,26.40
2022-11-26T02:06:22.413Z,35.30
2022-11-26T02:06:53.171Z,34.10
2022-11-26T02:07:24.023Z,32.90
2022-11-26T02:07:54.908Z,26.20
2022-11-26T02:08:25.722Z,26.10
2022-11-26T02:08:56.481Z,34.60
2022-11-26T02:09:27.306Z,27.50
2022-11-26T02:09:58.105Z,33.80
2022-11-26T02:10:28.850Z,30.80
2022-11-26T02:10:59.621Z,32.90
2022-11-26T02:11:30.393Z,34.10
2022-11-26T02:12:01.176Z,29.30
2022-11-26T02:12:31.933Z,27.70
2022-11-26T02:13:02.712Z,30.00
2022-11-26T02:13:33.475Z,31.30
2022-11-26T02:14:04.234Z,36.20
2022-11-26T02:14:35.116Z,35.50
2022-11-26T02:15:06.064Z,33.80
2022-11-26T02:15:36.829Z,33.50
2022-11-26T02:16:07.609Z,28.60
2022-11-26T02:16:38.459Z,30.00
2022-11-26T02:17:09.217Z,27.20
2022-11-26T02:17:39.972Z,25.90
2022-11-26T02:18:10.736Z,23.30
2022-11-26T02:18:41.492Z,25.10
2022-11-26T02:19:12.255Z,29.20
2022-11-26T02:19:43.015Z,24.10
2022-11-26T02:20:13.796Z,27.80
2022-11-26T02:20:44.579Z,28.40
2022-11-26T02:21:15.346Z,26.90
2022-11-26T02:21:46.114Z,22.40
2022-11-26T02:22:16.874Z,24.30
2022-11-26T02:22:47.633Z,24.30
2022-11-26T02:23:18.386Z,29.50
2022-11-26T02:23:49.145Z,27.50
2022-11-26T02:24:19.924Z,26.80
2022-11-26T02:24:50.696Z,28.50
2022-11-26T02:25:21.473Z,27.00
2022-11-26T02:25:52.227Z,26.20
2022-11-26T02:26:22.979Z,21.70
2022-11-26T02:26:53.753Z,24.40
2022-11-26T02:27:24.505Z,28.10
2022-11-26T02:27:55.278Z,24.70
2022-11-26T02:28:26.015Z,27.70
2022-11-26T02:28:56.775Z,19.70
2022-11-26T02:29:27.531Z,32.10
2022-11-26T02:29:58.282Z,20.40
2022-11-26T02:30:29.052Z,19.60
2022-11-26T02:30:59.796Z,21.90
2022-11-26T02:31:30.673Z,24.00
2022-11-26T02:32:01.522Z,30.20
2022-11-26T02:32:32.337Z,24.00
2022-11-26T02:33:03.114Z,24.00
2022-11-26T02:33:33.866Z,21.80
2022-11-26T02:34:04.635Z,27.10
2022-11-26T02:34:37.731Z,28.10
2022-11-26T02:35:05.867Z,24.60
2022-11-26T02:35:36.628Z,28.70
2022-11-26T02:36:07.389Z,28.10
2022-11-26T02:36:38.147Z,20.40
2022-11-26T02:37:08.898Z,24.40
2022-11-26T02:37:39.654Z,26.50
2022-11-26T02:38:10.443Z,24.20
2022-11-26T02:38:41.219Z,27.40
2022-11-26T02:39:11.977Z,20.40
2022-11-26T02:39:42.752Z,23.20
2022-11-26T02:40:13.520Z,19.60
2022-11-26T02:40:44.278Z,21.80
2022-11-26T02:41:15.049Z,23.60
2022-11-26T02:41:45.845Z,26.10
2022-11-26T02:42:16.595Z,25.80
2022-11-26T02:42:47.348Z,25.60
2022-11-26T02:43:18.102Z,23.90
2022-11-26T02:43:48.856Z,21.80
2022-11-26T02:44:19.607Z,22.60
2022-11-26T02:44:50.366Z,27.90
2022-11-26T02:45:21.127Z,26.10
2022-11-26T02:45:51.986Z,28.50
2022-11-26T02:46:22.838Z,20.00
2022-11-26T02:46:53.638Z,24.70
2022-11-26T02:47:24.399Z,26.80
2022-11-26T02:47:55.152Z,26.80
2022-11-26T02:48:25.918Z,28.80
2022-11-26T02:48:56.685Z,28.30
2022-11-26T02:49:27.439Z,25.30
2022-11-26T02:49:58.190Z,22.90
2022-11-26T02:50:28.961Z,19.80
2022-11-26T02:50:59.700Z,29.70
2022-11-26T02:51:34.742Z,23.40
2022-11-26T02:52:02.719Z,18.70
2022-11-26T02:52:33.490Z,20.20
2022-11-26T02:53:04.248Z,21.90
2022-11-26T02:53:35.090Z,27.20
2022-11-26T02:54:05.862Z,25.40
2022-11-26T02:54:36.905Z,21.00
2022-11-26T02:55:07.868Z,24.70
2022-11-26T02:55:38.620Z,21.20
2022-11-26T02:56:09.381Z,25.10
2022-11-26T02:56:40.140Z,21.20
2022-11-26T02:57:10.920Z,22.20
2022-11-26T02:57:41.680Z,28.30
2022-11-26T02:58:12.438Z,28.00
2022-11-26T02:58:43.231Z,19.70
2022-11-26T02:59:13.974Z,27.00
2022-11-26T02:59:44.751Z,27.60
2022-11-26T03:00:15.521Z,28.00
2022-11-26T03:00:46.295Z,25.50
2022-11-26T03:01:17.098Z,19.10
2022-11-26T03:01:47.949Z,22.70
2022-11-26T03:02:18.712Z,27.70
2022-11-26T03:02:49.480Z,30.60
2022-11-26T03:03:20.231Z,29.90
2022-11-26T03:03:51.023Z,26.10
2022-11-26T03:04:21.874Z,28.30
2022-11-26T03:04:52.666Z,22.90
2022-11-26T03:05:23.421Z,21.60
2022-11-26T03:05:54.184Z,24.70
2022-11-26T03:06:24.930Z,24.00
2022-11-26T03:06:55.691Z,20.40
2022-11-26T03:07:26.502Z,27.60
2022-11-26T03:07:57.342Z,24.40
2022-11-26T03:08:28.170Z,26.00
2022-11-26T03:08:58.923Z,26.60
2022-11-26T03:09:29.683Z,25.50
2022-11-26T03:10:00.442Z,21.30
2022-11-26T03:10:31.196Z,28.00
2022-11-26T03:11:01.950Z,25.30
2022-11-26T03:11:32.791Z,24.60
2022-11-26T03:12:03.726Z,23.00
2022-11-26T03:12:34.565Z,19.80
2022-11-26T03:13:05.322Z,22.70
2022-11-26T03:13:36.080Z,26.00
2022-11-26T03:14:06.842Z,27.80
2022-11-26T03:14:37.980Z,19.10
2022-11-26T03:15:09.013Z,17.70
2022-11-26T03:15:39.761Z,26.00
2022-11-26T03:16:10.563Z,27.90
2022-11-26T03:16:41.407Z,26.00
2022-11-26T03:17:12.256Z,24.90
2022-11-26T03:17:43.013Z,28.20
2022-11-26T03:18:13.773Z,28.20
2022-11-26T03:18:44.534Z,22.40
2022-11-26T03:19:15.309Z,30.60
2022-11-26T03:19:46.057Z,28.10
2022-11-26T03:20:16.814Z,29.40
2022-11-26T03:20:49.273Z,28.00
2022-11-26T03:21:19.876Z,20.40
2022-11-26T03:21:50.635Z,27.50
2022-11-26T03:22:21.424Z,25.90
2022-11-26T03:22:52.175Z,22.80
2022-11-26T03:23:22.925Z,18.50
2022-11-26T03:23:53.694Z,22.00
2022-11-26T03:24:24.453Z,24.30
2022-11-26T03:24:55.223Z,22.80
2022-11-26T03:25:25.977Z,22.70
2022-11-26T03:25:56.726Z,26.60
2022-11-26T03:26:27.487Z,24.10
2022-11-26T03:26:58.243Z,24.80
2022-11-26T03:27:29.116Z,25.00
2022-11-26T03:27:59.847Z,26.80
2022-11-26T03:28:30.605Z,24.20
2022-11-26T03:29:01.354Z,25.50
2022-11-26T03:29:32.127Z,24.20
2022-11-26T03:30:02.876Z,26.60
2022-11-26T03:30:33.640Z,23.30
2022-11-26T03:31:04.377Z,22.50
2022-11-26T03:31:35.167Z,25.40
2022-11-26T03:32:06.088Z,27.50
2022-11-26T03:32:36.948Z,26.80
2022-11-26T03:33:07.710Z,21.60
2022-11-26T03:33:38.467Z,23.30
2022-11-26T03:34:09.219Z,26.00
2022-11-26T03:34:40.403Z,27.10
2022-11-26T03:35:11.323Z,26.90
2022-11-26T03:35:42.088Z,27.10
2022-11-26T03:36:12.857Z,22.90
2022-11-26T03:36:43.619Z,26.00
2022-11-26T03:37:14.392Z,24.70
2022-11-26T03:37:45.179Z,19.30
2022-11-26T03:38:15.928Z,23.40
2022-11-26T03:38:46.689Z,25.60
2022-11-26T03:39:17.450Z,25.70
2022-11-26T03:39:48.196Z,24.60
2022-11-26T03:40:18.946Z,25.90
2022-11-26T03:40:49.697Z,24.50
2022-11-26T03:41:20.468Z,22.40
2022-11-26T03:41:51.287Z,21.70
2022-11-26T03:42:22.059Z,24.80
2022-11-26T03:42:52.821Z,24.60
2022-11-26T03:43:23.569Z,21.20
2022-11-26T03:43:54.318Z,23.20
2022-11-26T03:44:25.083Z,23.50
2022-11-26T03:44:55.828Z,20.80
2022-11-26T03:45:26.604Z,25.30
2022-11-26T03:45:57.501Z,26.00
2022-11-26T03:46:28.307Z,22.60
2022-11-26T03:46:59.061Z,21.20
2022-11-26T03:47:29.820Z,23.80
2022-11-26T03:48:00.588Z,21.30
2022-11-26T03:48:31.347Z,22.60
2022-11-26T03:49:02.104Z,20.90
2022-11-26T03:49:32.870Z,21.00
2022-11-26T03:50:03.641Z,21.80
2022-11-26T03:50:34.400Z,21.20
2022-11-26T03:51:05.179Z,20.50
2022-11-26T03:51:35.914Z,23.50
2022-11-26T03:52:06.670Z,21.30
2022-11-26T03:52:37.428Z,19.90
2022-11-26T03:53:08.180Z,20.50
2022-11-26T03:53:38.930Z,23.80
2022-11-26T03:54:09.710Z,19.40
2022-11-26T03:54:40.661Z,21.40
2022-11-26T03:55:11.491Z,20.30
2022-11-26T03:55:42.250Z,22.10
2022-11-26T03:56:13.012Z,21.80
2022-11-26T03:56:43.774Z,18.60
2022-11-26T03:57:14.521Z,21.70
2022-11-26T03:57:45.284Z,22.60
2022-11-26T03:58:16.044Z,22.40
2022-11-26T03:58:46.817Z,23.20
2022-11-26T03:59:17.562Z,20.80
2022-11-26T03:59:48.310Z,22.30
2022-11-26T04:00:19.064Z,21.50
2022-11-26T04:00:49.822Z,19.70
2022-11-26T04:01:20.636Z,18.80
2022-11-26T04:01:51.516Z,19.60
2022-11-26T04:02:22.292Z,20.80
2022-11-26T04:02:53.090Z,21.20
2022-11-26T04:03:23.915Z,20.90
2022-11-26T04:03:54.680Z,19.10
2022-11-26T04:04:25.431Z,19.80
2022-11-26T04:04:56.192Z,22.70
2022-11-26T04:05:26.957Z,19.50
2022-11-26T04:05:57.693Z,23.50
2022-11-26T04:06:28.442Z,19.70
2022-11-26T04:06:59.215Z,22.30
2022-11-26T04:07:30.066Z,22.00
2022-11-26T04:08:00.920Z,24.90
2022-11-26T04:08:31.682Z,19.80
2022-11-26T04:09:02.433Z,19.60
2022-11-26T04:09:33.191Z,21.00
2022-11-26T04:10:03.976Z,23.30
2022-11-26T04:10:34.735Z,23.40
2022-11-26T04:11:05.493Z,23.30
2022-11-26T04:11:36.254Z,24.70
2022-11-26T04:12:07.023Z,24.10
2022-11-26T04:12:37.808Z,25.90
2022-11-26T04:13:08.575Z,25.50
2022-11-26T04:13:39.328Z,23.40
2022-11-26T04:14:10.094Z,22.70
2022-11-26T04:14:41.170Z,24.00
2022-11-26T04:15:12.124Z,20.20
2022-11-26T04:15:42.884Z,21.50
2022-11-26T04:16:13.703Z,23.80
2022-11-26T04:16:44.515Z,23.00
2022-11-26T04:17:15.295Z,17.90
2022-11-26T04:17:46.074Z,20.20
2022-11-26T04:18:16.849Z,23.00
2022-11-26T04:18:47.595Z,24.40
2022-11-26T04:19:18.397Z,21.40
2022-11-26T04:19:49.177Z,18.20
2022-11-26T04:20:19.938Z,18.70
2022-11-26T04:20:53.263Z,23.70
2022-11-26T04:21:21.247Z,22.70
2022-11-26T04:21:52.017Z,19.30
2022-11-26T04:22:22.786Z,19.20
2022-11-26T04:22:53.556Z,23.50
2022-11-26T04:23:24.306Z,22.90
2022-11-26T04:23:55.054Z,16.60
2022-11-26T04:24:25.816Z,20.20
2022-11-26T04:24:56.607Z,25.60
2022-11-26T04:25:27.367Z,21.10
2022-11-26T04:25:58.126Z,22.40
2022-11-26T04:26:28.899Z,22.30
2022-11-26T04:26:59.636Z,16.70
2022-11-26T04:27:30.409Z,16.10
2022-11-26T04:28:01.201Z,19.50
2022-11-26T04:28:31.948Z,23.00
2022-11-26T04:29:02.721Z,25.00
2022-11-26T04:29:33.469Z,23.70
2022-11-26T04:30:04.227Z,22.20
2022-11-26T04:30:34.988Z,23.30
2022-11-26T04:31:05.739Z,20.90
2022-11-26T04:31:36.599Z,24.10
2022-11-26T04:32:07.460Z,23.20
2022-11-26T04:32:38.317Z,22.00
2022-11-26T04:33:09.078Z,24.60
2022-11-26T04:33:39.857Z,18.50
2022-11-26T04:34:10.612Z,24.50
2022-11-26T04:34:41.481Z,24.10
2022-11-26T04:35:12.239Z,21.20
2022-11-26T04:35:43.001Z,22.00
2022-11-26T04:36:13.770Z,24.10
2022-11-26T04:36:44.529Z,24.60
2022-11-26T04:37:15.279Z,22.40
2022-11-26T04:37:46.050Z,22.50
2022-11-26T04:38:19.384Z,22.60
2022-11-26T04:38:49.296Z,23.40
2022-11-26T04:39:20.058Z,19.90
2022-11-26T04:39:50.810Z,22.00
2022-11-26T04:40:21.568Z,23.10
2022-11-26T04:40:52.321Z,24.20
2022-11-26T04:41:23.081Z,22.30
2022-11-26T04:41:53.839Z,23.40
2022-11-26T04:42:24.590Z,26.00
2022-11-26T04:42:55.378Z,25.80
2022-11-26T04:43:26.129Z,24.00
2022-11-26T04:43:56.881Z,24.60
2022-11-26T04:44:27.648Z,24.20
2022-11-26T04:44:58.431Z,27.00
2022-11-26T04:45:29.221Z,31.00
2022-11-26T04:46:00.090Z,25.90
2022-11-26T04:46:30.890Z,30.40
2022-11-26T04:47:01.653Z,25.40
2022-11-26T04:47:32.411Z,29.70
2022-11-26T04:48:03.212Z,25.80
2022-11-26T04:48:33.968Z,23.40
2022-11-26T04:49:04.730Z,25.30
2022-11-26T04:49:35.475Z,27.70
2022-11-26T04:50:06.290Z,27.60
2022-11-26T04:50:37.027Z,27.80
2022-11-26T04:51:07.791Z,25.70
2022-11-26T04:51:38.530Z,28.30
2022-11-26T04:52:09.306Z,28.10
2022-11-26T04:52:40.054Z,29.70
2022-11-26T04:53:10.832Z,31.10
2022-11-26T04:53:41.588Z,28.60
2022-11-26T04:54:13.324Z,32.20
2022-11-26T04:54:44.212Z,30.10
2022-11-26T04:55:14.963Z,25.60
2022-11-26T04:55:45.723Z,28.90
2022-11-26T04:56:16.473Z,30.70
2022-11-26T04:56:47.232Z,34.30
2022-11-26T04:57:18.014Z,29.50
2022-11-26T04:57:48.830Z,28.00
2022-11-26T04:58:19.585Z,31.50
2022-11-26T04:58:50.334Z,32.60
2022-11-26T04:59:21.101Z,33.90
2022-11-26T04:59:51.874Z,28.60
2022-11-26T05:00:22.633Z,30.40
2022-11-26T05:00:53.440Z,27.70
2022-11-26T05:01:24.381Z,30.50
2022-11-26T05:01:55.154Z,32.70
2022-11-26T05:03:06.001Z,31.00
2022-11-26T05:03:36.757Z,32.80
2022-11-26T05:04:07.558Z,31.80
2022-11-26T05:04:38.524Z,32.80
2022-11-26T05:05:09.438Z,28.20
2022-11-26T05:05:40.197Z,29.20
2022-11-26T05:06:10.938Z,29.70
2022-11-26T05:06:41.711Z,31.60
2022-11-26T05:07:12.498Z,29.50
2022-11-26T05:07:43.312Z,31.20
2022-11-26T05:08:14.155Z,31.90
2022-11-26T05:08:44.909Z,32.70
2022-11-26T05:09:15.674Z,28.00
2022-11-26T05:09:46.443Z,30.60
2022-11-26T05:10:17.200Z,27.90
2022-11-26T05:10:47.950Z,27.60
2022-11-26T05:11:18.720Z,34.00
2022-11-26T05:11:49.475Z,30.60
2022-11-26T05:12:20.232Z,29.20
2022-11-26T05:12:51.004Z,31.00
2022-11-26T05:13:21.754Z,33.80
2022-11-26T05:13:52.510Z,28.00
2022-11-26T05:14:23.270Z,26.30
2022-11-26T05:14:54.031Z,29.10
2022-11-26T05:15:24.791Z,33.20
2022-11-26T05:15:55.551Z,31.40
2022-11-26T05:16:26.328Z,27.10
2022-11-26T05:16:57.119Z,30.10
2022-11-26T05:17:27.880Z,32.30
2022-11-26T05:17:58.660Z,33.20
2022-11-26T05:18:29.411Z,34.30
2022-11-26T05:19:00.154Z,34.20
2022-11-26T05:19:30.900Z,30.80
2022-11-26T05:20:01.692Z,29.00
2022-11-26T05:20:32.452Z,28.70
2022-11-26T05:21:03.193Z,28.20
2022-11-26T05:21:33.941Z,29.90
2022-11-26T05:22:04.697Z,30.30
2022-11-26T05:22:35.473Z,30.70
2022-11-26T05:23:06.242Z,30.60
2022-11-26T05:23:37.012Z,29.60
2022-11-26T05:24:07.753Z,28.40
2022-11-26T05:24:38.702Z,27.50
2022-11-26T05:25:09.583Z,28.80
2022-11-26T05:25:40.322Z,31.20
2022-11-26T05:26:11.074Z,32.60
2022-11-26T05:26:41.814Z,33.10
2022-11-26T05:27:12.585Z,32.00
2022-11-26T05:27:43.331Z,33.40
2022-11-26T05:28:14.128Z,29.30
2022-11-26T05:28:44.872Z,31.20
2022-11-26T05:29:15.653Z,29.60
2022-11-26T05:29:46.415Z,29.30
2022-11-26T05:30:17.165Z,28.00
2022-11-26T05:30:47.930Z,33.70
2022-11-26T05:31:18.733Z,33.40
2022-11-26T05:31:49.635Z,31.50
2022-11-26T05:32:20.427Z,36.20
2022-11-26T05:32:51.199Z,35.70
2022-11-26T05:33:21.966Z,36.80
2022-11-26T05:33:52.726Z,31.60
2022-11-26T05:34:23.473Z,29.10
2022-11-26T05:34:58.625Z,30.80
2022-11-26T05:35:26.828Z,29.90
2022-11-26T05:35:57.585Z,29.10
2022-11-26T05:36:28.364Z,32.30
2022-11-26T05:36:59.116Z,31.60
2022-11-26T05:37:29.866Z,31.50
2022-11-26T05:38:00.648Z,30.70
2022-11-26T05:38:31.406Z,29.30
2022-11-26T05:39:02.171Z,36.30
2022-11-26T05:39:32.916Z,29.90
2022-11-26T05:40:03.658Z,26.60
2022-11-26T05:40:34.433Z,28.60
2022-11-26T05:41:05.191Z,27.40
2022-11-26T05:41:35.946Z,27.70
2022-11-26T05:42:09.292Z,29.80
2022-11-26T05:42:37.346Z,32.00
2022-11-26T05:43:08.145Z,32.40
2022-11-26T05:43:38.892Z,30.90
2022-11-26T05:44:09.635Z,33.00
2022-11-26T05:44:40.632Z,32.60
2022-11-26T05:45:11.619Z,28.30
2022-11-26T05:45:42.445Z,29.50
2022-11-26T05:46:13.241Z,31.00
2022-11-26T05:46:44.050Z,31.60
2022-11-26T05:47:14.800Z,30.90
2022-11-26T05:47:45.559Z,29.40
2022-11-26T05:48:16.315Z,33.40
2022-11-26T05:48:47.065Z,33.10
2022-11-26T05:49:17.815Z,34.60
2022-11-26T05:49:48.609Z,30.60
2022-11-26T05:50:19.366Z,29.10
2022-11-26T05:50:54.403Z,30.90
2022-11-26T05:51:22.268Z,29.90
2022-11-26T05:51:53.018Z,30.20
2022-11-26T05:52:23.768Z,29.60
2022-11-26T05:52:54.539Z,29.60
2022-11-26T05:53:25.320Z,31.50
2022-11-26T05:53:56.077Z,33.60
2022-11-26T05:54:26.839Z,29.60
2022-11-26T05:54:57.622Z,29.00
2022-11-26T05:55:28.369Z,29.90
2022-11-26T05:55:59.140Z,29.30
2022-11-26T05:56:29.918Z,30.30
2022-11-26T05:57:00.701Z,29.70
2022-11-26T05:57:31.458Z,30.70
2022-11-26T05:58:02.207Z,28.30
2022-11-26T05:58:32.990Z,30.30
2022-11-26T05:59:03.773Z,30.10
2022-11-26T05:59:34.529Z,26.70
2022-11-26T06:00:05.291Z,26.90
2022-11-26T06:00:36.039Z,30.30
2022-11-26T06:01:06.819Z,28.70
2022-11-26T06:01:37.584Z,29.10
2022-11-26T06:02:08.442Z,28.90
2022-11-26T06:02:39.383Z,27.30
2022-11-26T06:03:10.296Z,31.90
2022-11-26T06:03:41.162Z,26.90
2022-11-26T06:04:11.928Z,30.90
2022-11-26T06:04:42.674Z,28.20
2022-11-26T06:05:13.444Z,31.00
2022-11-26T06:05:44.189Z,28.00
2022-11-26T06:06:14.962Z,30.70
2022-11-26T06:06:45.709Z,30.90
2022-11-26T06:07:16.495Z,29.30
2022-11-26T06:07:47.450Z,30.00
2022-11-26T06:08:18.246Z,35.70
2022-11-26T06:08:49.002Z,31.20
2022-11-26T06:09:19.761Z,33.30
2022-11-26T06:09:50.536Z,32.60
2022-11-26T06:10:21.288Z,32.40
2022-11-26T06:10:52.048Z,31.90
2022-11-26T06:11:22.790Z,35.40
2022-11-26T06:11:53.551Z,34.80
2022-11-26T06:12:24.309Z,40.80
2022-11-26T06:12:55.068Z,37.60
2022-11-26T06:13:25.833Z,39.90
2022-11-26T06:13:56.589Z,37.70
2022-11-26T06:14:27.352Z,34.50
2022-11-26T06:14:58.115Z,35.80
2022-11-26T06:15:28.862Z,32.90
2022-11-26T06:15:59.645Z,33.20
2022-11-26T06:16:30.433Z,34.80
2022-11-26T06:17:01.210Z,37.30
2022-11-26T06:17:32.006Z,36.90
2022-11-26T06:18:02.755Z,37.40
2022-11-26T06:18:33.512Z,36.00
2022-11-26T06:19:04.262Z,32.80
2022-11-26T06:19:35.014Z,31.70
2022-11-26T06:20:05.771Z,31.20
2022-11-26T06:20:36.562Z,32.50
2022-11-26T06:21:07.318Z,33.10
2022-11-26T06:21:38.078Z,30.90
2022-11-26T06:22:08.837Z,32.50
2022-11-26T06:22:39.591Z,33.60
2022-11-26T06:23:10.370Z,34.40
2022-11-26T06:23:46.117Z,33.50
2022-11-26T06:24:13.743Z,33.00
2022-11-26T06:24:44.503Z,31.40
2022-11-26T06:25:15.276Z,36.00
2022-11-26T06:25:46.057Z,31.30
2022-11-26T06:26:16.827Z,30.70
2022-11-26T06:26:47.583Z,32.70
2022-11-26T06:27:18.336Z,32.60
2022-11-26T06:27:49.094Z,34.90
2022-11-26T06:28:19.856Z,36.80
2022-11-26T06:28:50.625Z,39.00
2022-11-26T06:29:27.530Z,32.60
2022-11-26T06:29:54.007Z,34.20
2022-11-26T06:30:25.015Z,36.30
2022-11-26T06:30:55.773Z,37.10
2022-11-26T06:31:26.546Z,31.40
2022-11-26T06:31:57.462Z,30.30
2022-11-26T06:32:28.244Z,29.70
2022-11-26T06:32:59.004Z,29.50
2022-11-26T06:33:29.765Z,29.30
2022-11-26T06:34:00.537Z,28.40
2022-11-26T06:34:31.286Z,29.30
2022-11-26T06:35:02.055Z,29.50
2022-11-26T06:35:32.825Z,28.50
2022-11-26T06:36:03.593Z,28.90
2022-11-26T06:36:34.346Z,28.00
2022-11-26T06:37:05.089Z,27.70